sensor_id;sensor_type;location;lat;lon;timestamp;temperature;humidity
10968;DHT22;5536;49.602;10.980;2023-02-25T00:01:27;4.10;99.90
10968;DHT22;5536;49.602;10.980;2023-02-25T00:03:56;4.10;99.90
10968;DHT22;5536;49.602;10.980;2023-02-25T00:06:23;4.20;99.90
10968;DHT22;5536;49.602;10.980;2023-02-25T00:08:52;4.20;99.90
10968;DHT22;5536;49.602;10.980;2023-02-25T00:11:20;4.10;99.90
10968;DHT22;5536;49.602;10.980;2023-02-25T00:13:49;4.10;99.90
10968;DHT22;5536;49.602;10.980;2023-02-25T00:16:17;4.00;99.90
10968;DHT22;5536;49.602;10.980;2023-02-25T00:18:44;4.10;99.90
10968;DHT22;5536;49.602;10.980;2023-02-25T00:21:13;4.00;99.90
10968;DHT22;5536;49.602;10.980;2023-02-25T00:23:41;4.00;99.90
10968;DHT22;5536;49.602;10.980;2023-02-25T00:26:08;4.10;99.90
10968;DHT22;5536;49.602;10.980;2023-02-25T00:28:36;4.10;99.90
10968;DHT22;5536;49.602;10.980;2023-02-25T00:31:10;4.10;99.90
10968;DHT22;5536;49.602;10.980;2023-02-25T00:33:38;4.10;99.90
10968;DHT22;5536;49.602;10.980;2023-02-25T00:36:07;4.10;99.90
10968;DHT22;5536;49.602;10.980;2023-02-25T00:38:34;4.10;99.90
10968;DHT22;5536;49.602;10.980;2023-02-25T00:41:04;4.10;99.90
10968;DHT22;5536;49.602;10.980;2023-02-25T00:43:36;4.10;99.90
10968;DHT22;5536;49.602;10.980;2023-02-25T00:46:04;4.10;99.90
10968;DHT22;5536;49.602;10.980;2023-02-25T00:48:32;4.10;99.90
10968;DHT22;5536;49.602;10.980;2023-02-25T00:51:04;4.20;99.90
10968;DHT22;5536;49.602;10.980;2023-02-25T00:53:32;4.10;99.90
10968;DHT22;5536;49.602;10.980;2023-02-25T00:55:59;4.10;99.90
10968;DHT22;5536;49.602;10.980;2023-02-25T00:58:26;4.20;99.90
10968;DHT22;5536;49.602;10.980;2023-02-25T01:00:53;4.20;99.90
10968;DHT22;5536;49.602;10.980;2023-02-25T01:03:21;4.10;99.90
10968;DHT22;5536;49.602;10.980;2023-02-25T01:05:49;4.10;99.90
10968;DHT22;5536;49.602;10.980;2023-02-25T01:08:17;4.10;99.90
10968;DHT22;5536;49.602;10.980;2023-02-25T01:10:45;4.10;99.90
10968;DHT22;5536;49.602;10.980;2023-02-25T01:13:13;4.00;99.90
10968;DHT22;5536;49.602;10.980;2023-02-25T01:15:40;4.00;99.90
10968;DHT22;5536;49.602;10.980;2023-02-25T01:18:07;4.00;99.90
10968;DHT22;5536;49.602;10.980;2023-02-25T01:20:37;4.00;99.90
10968;DHT22;5536;49.602;10.980;2023-02-25T01:23:05;4.00;99.90
10968;DHT22;5536;49.602;10.980;2023-02-25T01:25:32;3.90;99.90
10968;DHT22;5536;49.602;10.980;2023-02-25T01:27:59;3.90;99.90
10968;DHT22;5536;49.602;10.980;2023-02-25T01:30:26;3.90;99.90
10968;DHT22;5536;49.602;10.980;2023-02-25T01:32:53;3.90;99.90
10968;DHT22;5536;49.602;10.980;2023-02-25T01:35:20;3.80;99.90
10968;DHT22;5536;49.602;10.980;2023-02-25T01:37:47;3.80;99.90
10968;DHT22;5536;49.602;10.980;2023-02-25T01:40:16;3.80;99.90
10968;DHT22;5536;49.602;10.980;2023-02-25T01:42:44;3.90;99.90
10968;DHT22;5536;49.602;10.980;2023-02-25T01:45:27;3.90;99.90
10968;DHT22;5536;49.602;10.980;2023-02-25T01:47:58;3.90;99.90
10968;DHT22;5536;49.602;10.980;2023-02-25T01:50:30;3.90;99.90
10968;DHT22;5536;49.602;10.980;2023-02-25T01:52:59;3.80;99.90
10968;DHT22;5536;49.602;10.980;2023-02-25T01:55:29;3.80;99.90
10968;DHT22;5536;49.602;10.980;2023-02-25T01:57:59;3.80;99.90
10968;DHT22;5536;49.602;10.980;2023-02-25T02:00:27;3.80;99.90
10968;DHT22;5536;49.602;10.980;2023-02-25T02:02:56;3.70;99.90
10968;DHT22;5536;49.602;10.980;2023-02-25T02:05:34;3.70;99.90
10968;DHT22;5536;49.602;10.980;2023-02-25T02:08:03;3.60;99.90
10968;DHT22;5536;49.602;10.980;2023-02-25T02:10:31;3.60;99.90
10968;DHT22;5536;49.602;10.980;2023-02-25T02:12:58;3.60;99.90
10968;DHT22;5536;49.602;10.980;2023-02-25T02:15:27;3.60;99.90
10968;DHT22;5536;49.602;10.980;2023-02-25T02:17:59;3.60;99.90
10968;DHT22;5536;49.602;10.980;2023-02-25T02:20:31;3.60;99.90
10968;DHT22;5536;49.602;10.980;2023-02-25T02:23:17;3.60;99.90
10968;DHT22;5536;49.602;10.980;2023-02-25T02:26:18;3.60;99.90
10968;DHT22;5536;49.602;10.980;2023-02-25T02:29:21;3.60;99.90
10968;DHT22;5536;49.602;10.980;2023-02-25T02:32:05;3.60;99.90
10968;DHT22;5536;49.602;10.980;2023-02-25T02:34:40;3.60;99.90
10968;DHT22;5536;49.602;10.980;2023-02-25T02:37:20;3.60;99.90
10968;DHT22;5536;49.602;10.980;2023-02-25T02:39:54;3.60;99.90
10968;DHT22;5536;49.602;10.980;2023-02-25T02:42:29;3.60;99.90
10968;DHT22;5536;49.602;10.980;2023-02-25T02:45:02;3.60;99.90
10968;DHT22;5536;49.602;10.980;2023-02-25T02:47:34;3.70;99.90
10968;DHT22;5536;49.602;10.980;2023-02-25T02:50:06;3.60;99.90
10968;DHT22;5536;49.602;10.980;2023-02-25T02:52:36;3.60;99.90
10968;DHT22;5536;49.602;10.980;2023-02-25T02:55:08;3.60;99.90
10968;DHT22;5536;49.602;10.980;2023-02-25T02:57:37;3.60;99.90
10968;DHT22;5536;49.602;10.980;2023-02-25T03:00:10;3.70;99.90
10968;DHT22;5536;49.602;10.980;2023-02-25T03:02:45;3.70;99.90
10968;DHT22;5536;49.602;10.980;2023-02-25T03:05:17;3.70;99.90
10968;DHT22;5536;49.602;10.980;2023-02-25T03:07:49;3.70;99.90
10968;DHT22;5536;49.602;10.980;2023-02-25T03:10:19;3.70;99.90
10968;DHT22;5536;49.602;10.980;2023-02-25T03:12:47;3.70;99.90
10968;DHT22;5536;49.602;10.980;2023-02-25T03:15:14;3.70;99.90
10968;DHT22;5536;49.602;10.980;2023-02-25T03:17:46;3.70;99.90
10968;DHT22;5536;49.602;10.980;2023-02-25T03:20:18;3.70;99.90
10968;DHT22;5536;49.602;10.980;2023-02-25T03:22:48;3.70;99.90
10968;DHT22;5536;49.602;10.980;2023-02-25T03:25:19;3.70;99.90
10968;DHT22;5536;49.602;10.980;2023-02-25T03:27:47;3.70;99.90
10968;DHT22;5536;49.602;10.980;2023-02-25T03:30:20;3.70;99.90
10968;DHT22;5536;49.602;10.980;2023-02-25T03:32:54;3.70;99.90
10968;DHT22;5536;49.602;10.980;2023-02-25T03:35:23;3.70;99.90
10968;DHT22;5536;49.602;10.980;2023-02-25T03:38:01;3.70;99.90
10968;DHT22;5536;49.602;10.980;2023-02-25T03:40:30;3.70;99.90
10968;DHT22;5536;49.602;10.980;2023-02-25T03:43:02;3.70;99.90
10968;DHT22;5536;49.602;10.980;2023-02-25T03:45:32;3.70;99.90
10968;DHT22;5536;49.602;10.980;2023-02-25T03:48:02;3.70;99.90
10968;DHT22;5536;49.602;10.980;2023-02-25T03:50:33;3.70;99.90
10968;DHT22;5536;49.602;10.980;2023-02-25T03:53:02;3.70;99.90
10968;DHT22;5536;49.602;10.980;2023-02-25T03:55:29;3.70;99.90
10968;DHT22;5536;49.602;10.980;2023-02-25T03:57:56;3.70;99.90
10968;DHT22;5536;49.602;10.980;2023-02-25T04:00:28;3.70;99.90
10968;DHT22;5536;49.602;10.980;2023-02-25T04:02:56;3.70;99.90
10968;DHT22;5536;49.602;10.980;2023-02-25T04:05:24;3.70;99.90
10968;DHT22;5536;49.602;10.980;2023-02-25T04:07:52;3.70;99.90
10968;DHT22;5536;49.602;10.980;2023-02-25T04:10:19;3.70;99.90
10968;DHT22;5536;49.602;10.980;2023-02-25T04:12:46;3.70;99.90
10968;DHT22;5536;49.602;10.980;2023-02-25T04:15:14;3.60;99.90
10968;DHT22;5536;49.602;10.980;2023-02-25T04:17:41;3.60;99.90
10968;DHT22;5536;49.602;10.980;2023-02-25T04:20:11;3.60;99.90
10968;DHT22;5536;49.602;10.980;2023-02-25T04:22:40;3.60;99.90
10968;DHT22;5536;49.602;10.980;2023-02-25T04:25:07;3.60;99.90
10968;DHT22;5536;49.602;10.980;2023-02-25T04:27:34;3.60;99.90
10968;DHT22;5536;49.602;10.980;2023-02-25T04:30:02;3.60;99.90
10968;DHT22;5536;49.602;10.980;2023-02-25T04:32:29;3.60;99.90
10968;DHT22;5536;49.602;10.980;2023-02-25T04:34:56;3.60;99.90
10968;DHT22;5536;49.602;10.980;2023-02-25T04:37:27;3.60;99.90
10968;DHT22;5536;49.602;10.980;2023-02-25T04:39:56;3.60;99.90
10968;DHT22;5536;49.602;10.980;2023-02-25T04:42:23;3.60;99.90
10968;DHT22;5536;49.602;10.980;2023-02-25T04:44:50;3.60;99.90
10968;DHT22;5536;49.602;10.980;2023-02-25T04:47:17;3.60;99.90
10968;DHT22;5536;49.602;10.980;2023-02-25T04:49:44;3.60;99.90
10968;DHT22;5536;49.602;10.980;2023-02-25T04:52:12;3.60;99.90
10968;DHT22;5536;49.602;10.980;2023-02-25T04:54:39;3.60;99.90
10968;DHT22;5536;49.602;10.980;2023-02-25T04:57:08;3.60;99.90
10968;DHT22;5536;49.602;10.980;2023-02-25T04:59:36;3.60;99.90
10968;DHT22;5536;49.602;10.980;2023-02-25T05:02:03;3.60;99.90
10968;DHT22;5536;49.602;10.980;2023-02-25T05:04:32;3.60;99.90
10968;DHT22;5536;49.602;10.980;2023-02-25T05:06:59;3.60;99.90
10968;DHT22;5536;49.602;10.980;2023-02-25T05:09:26;3.70;99.90
10968;DHT22;5536;49.602;10.980;2023-02-25T05:11:53;3.70;99.90
10968;DHT22;5536;49.602;10.980;2023-02-25T05:14:21;3.70;99.90
10968;DHT22;5536;49.602;10.980;2023-02-25T05:16:48;3.70;99.90
10968;DHT22;5536;49.602;10.980;2023-02-25T05:19:17;3.70;99.90
10968;DHT22;5536;49.602;10.980;2023-02-25T05:21:47;3.70;99.90
10968;DHT22;5536;49.602;10.980;2023-02-25T05:24:14;3.70;99.90
10968;DHT22;5536;49.602;10.980;2023-02-25T05:26:42;3.70;99.90
10968;DHT22;5536;49.602;10.980;2023-02-25T05:29:10;3.70;99.90
10968;DHT22;5536;49.602;10.980;2023-02-25T05:31:38;3.60;99.90
10968;DHT22;5536;49.602;10.980;2023-02-25T05:34:05;3.70;99.90
10968;DHT22;5536;49.602;10.980;2023-02-25T05:36:32;3.60;99.90
10968;DHT22;5536;49.602;10.980;2023-02-25T05:38:59;3.70;99.90
10968;DHT22;5536;49.602;10.980;2023-02-25T05:41:27;3.70;99.90
10968;DHT22;5536;49.602;10.980;2023-02-25T05:43:55;3.70;99.90
10968;DHT22;5536;49.602;10.980;2023-02-25T05:46:23;3.70;99.90
10968;DHT22;5536;49.602;10.980;2023-02-25T05:48:52;3.70;99.90
10968;DHT22;5536;49.602;10.980;2023-02-25T05:51:20;3.70;99.90
10968;DHT22;5536;49.602;10.980;2023-02-25T05:53:48;3.70;99.90
10968;DHT22;5536;49.602;10.980;2023-02-25T05:56:18;3.70;99.90
10968;DHT22;5536;49.602;10.980;2023-02-25T05:58:46;3.70;99.90
10968;DHT22;5536;49.602;10.980;2023-02-25T06:01:14;3.60;99.90
10968;DHT22;5536;49.602;10.980;2023-02-25T06:03:43;3.60;99.90
10968;DHT22;5536;49.602;10.980;2023-02-25T06:06:12;3.60;99.90
10968;DHT22;5536;49.602;10.980;2023-02-25T06:08:40;3.60;99.90
10968;DHT22;5536;49.602;10.980;2023-02-25T06:11:09;3.60;99.90
10968;DHT22;5536;49.602;10.980;2023-02-25T06:13:39;3.60;99.90
10968;DHT22;5536;49.602;10.980;2023-02-25T06:16:06;3.60;99.90
10968;DHT22;5536;49.602;10.980;2023-02-25T06:18:33;3.60;99.90
10968;DHT22;5536;49.602;10.980;2023-02-25T06:21:03;3.60;99.90
10968;DHT22;5536;49.602;10.980;2023-02-25T06:23:33;3.60;99.90
10968;DHT22;5536;49.602;10.980;2023-02-25T06:26:00;3.60;99.90
10968;DHT22;5536;49.602;10.980;2023-02-25T06:28:27;3.60;99.90
10968;DHT22;5536;49.602;10.980;2023-02-25T06:30:54;3.60;99.90
10968;DHT22;5536;49.602;10.980;2023-02-25T06:33:21;3.60;99.90
10968;DHT22;5536;49.602;10.980;2023-02-25T06:35:50;3.60;99.90
10968;DHT22;5536;49.602;10.980;2023-02-25T06:38:17;3.60;99.90
10968;DHT22;5536;49.602;10.980;2023-02-25T06:40:46;3.60;99.90
10968;DHT22;5536;49.602;10.980;2023-02-25T06:43:13;3.60;99.90
10968;DHT22;5536;49.602;10.980;2023-02-25T06:45:40;3.70;99.90
10968;DHT22;5536;49.602;10.980;2023-02-25T06:48:07;3.70;99.90
10968;DHT22;5536;49.602;10.980;2023-02-25T06:50:37;3.70;99.90
10968;DHT22;5536;49.602;10.980;2023-02-25T06:53:04;3.70;99.90
10968;DHT22;5536;49.602;10.980;2023-02-25T06:55:32;3.70;99.90
10968;DHT22;5536;49.602;10.980;2023-02-25T06:58:00;3.70;99.90
10968;DHT22;5536;49.602;10.980;2023-02-25T07:00:27;3.70;99.90
10968;DHT22;5536;49.602;10.980;2023-02-25T07:02:54;3.70;99.90
10968;DHT22;5536;49.602;10.980;2023-02-25T07:05:21;3.80;99.90
10968;DHT22;5536;49.602;10.980;2023-02-25T07:07:48;3.80;99.90
10968;DHT22;5536;49.602;10.980;2023-02-25T07:10:15;3.80;99.90
10968;DHT22;5536;49.602;10.980;2023-02-25T07:12:42;3.80;99.90
10968;DHT22;5536;49.602;10.980;2023-02-25T07:15:11;3.70;99.90
10968;DHT22;5536;49.602;10.980;2023-02-25T07:17:38;3.80;99.90
10968;DHT22;5536;49.602;10.980;2023-02-25T07:20:06;3.80;99.90
10968;DHT22;5536;49.602;10.980;2023-02-25T07:22:33;3.80;99.90
10968;DHT22;5536;49.602;10.980;2023-02-25T07:25:00;3.80;99.90
10968;DHT22;5536;49.602;10.980;2023-02-25T07:27:27;3.80;99.90
10968;DHT22;5536;49.602;10.980;2023-02-25T07:29:54;3.80;99.90
10968;DHT22;5536;49.602;10.980;2023-02-25T07:32:22;3.80;99.90
10968;DHT22;5536;49.602;10.980;2023-02-25T07:34:49;3.90;99.90
10968;DHT22;5536;49.602;10.980;2023-02-25T07:37:16;3.90;99.90
10968;DHT22;5536;49.602;10.980;2023-02-25T07:39:43;3.90;99.90
10968;DHT22;5536;49.602;10.980;2023-02-25T07:42:10;3.90;99.90
10968;DHT22;5536;49.602;10.980;2023-02-25T07:44:37;3.90;99.90
10968;DHT22;5536;49.602;10.980;2023-02-25T07:47:04;3.90;99.90
10968;DHT22;5536;49.602;10.980;2023-02-25T07:49:32;4.00;99.90
10968;DHT22;5536;49.602;10.980;2023-02-25T07:51:59;4.10;99.90
10968;DHT22;5536;49.602;10.980;2023-02-25T07:54:26;4.10;99.90
10968;DHT22;5536;49.602;10.980;2023-02-25T07:56:53;4.20;99.90
10968;DHT22;5536;49.602;10.980;2023-02-25T07:59:20;4.20;99.90
10968;DHT22;5536;49.602;10.980;2023-02-25T08:01:47;4.20;99.90
10968;DHT22;5536;49.602;10.980;2023-02-25T08:04:14;4.20;99.90
10968;DHT22;5536;49.602;10.980;2023-02-25T08:06:43;4.20;99.90
10968;DHT22;5536;49.602;10.980;2023-02-25T08:09:11;4.20;99.90
10968;DHT22;5536;49.602;10.980;2023-02-25T08:11:39;4.30;99.90
10968;DHT22;5536;49.602;10.980;2023-02-25T08:14:06;4.30;99.90
10968;DHT22;5536;49.602;10.980;2023-02-25T08:16:33;4.30;99.90
10968;DHT22;5536;49.602;10.980;2023-02-25T08:19:00;4.30;99.90
10968;DHT22;5536;49.602;10.980;2023-02-25T08:21:28;4.30;99.90
10968;DHT22;5536;49.602;10.980;2023-02-25T08:24:00;4.40;99.90
10968;DHT22;5536;49.602;10.980;2023-02-25T08:26:27;4.40;99.90
10968;DHT22;5536;49.602;10.980;2023-02-25T08:28:55;4.40;99.90
10968;DHT22;5536;49.602;10.980;2023-02-25T08:31:22;4.50;99.90
10968;DHT22;5536;49.602;10.980;2023-02-25T08:33:50;4.50;99.90
10968;DHT22;5536;49.602;10.980;2023-02-25T08:36:19;4.70;99.90
10968;DHT22;5536;49.602;10.980;2023-02-25T08:38:48;4.90;99.90
10968;DHT22;5536;49.602;10.980;2023-02-25T08:41:17;5.10;99.90
10968;DHT22;5536;49.602;10.980;2023-02-25T08:43:47;5.20;99.90
10968;DHT22;5536;49.602;10.980;2023-02-25T08:46:16;5.20;99.90
10968;DHT22;5536;49.602;10.980;2023-02-25T08:48:43;5.00;99.90
10968;DHT22;5536;49.602;10.980;2023-02-25T08:51:10;4.90;99.90
10968;DHT22;5536;49.602;10.980;2023-02-25T08:53:38;4.90;99.90
10968;DHT22;5536;49.602;10.980;2023-02-25T08:56:06;4.90;99.90
10968;DHT22;5536;49.602;10.980;2023-02-25T08:58:35;4.90;99.90
10968;DHT22;5536;49.602;10.980;2023-02-25T09:01:05;5.00;99.90
10968;DHT22;5536;49.602;10.980;2023-02-25T09:03:33;4.90;99.90
10968;DHT22;5536;49.602;10.980;2023-02-25T09:06:00;4.90;99.90
10968;DHT22;5536;49.602;10.980;2023-02-25T09:08:27;4.80;99.90
10968;DHT22;5536;49.602;10.980;2023-02-25T09:10:56;4.90;99.90
10968;DHT22;5536;49.602;10.980;2023-02-25T09:13:23;4.90;99.90
10968;DHT22;5536;49.602;10.980;2023-02-25T09:15:56;4.90;99.90
10968;DHT22;5536;49.602;10.980;2023-02-25T09:18:23;4.90;99.90
10968;DHT22;5536;49.602;10.980;2023-02-25T09:20:50;4.90;99.90
10968;DHT22;5536;49.602;10.980;2023-02-25T09:23:17;4.80;99.90
10968;DHT22;5536;49.602;10.980;2023-02-25T09:25:44;4.90;99.90
10968;DHT22;5536;49.602;10.980;2023-02-25T09:28:12;4.80;99.90
10968;DHT22;5536;49.602;10.980;2023-02-25T09:30:39;4.80;99.90
10968;DHT22;5536;49.602;10.980;2023-02-25T09:33:08;4.80;99.90
10968;DHT22;5536;49.602;10.980;2023-02-25T09:35:35;4.70;99.90
10968;DHT22;5536;49.602;10.980;2023-02-25T09:38:02;4.70;99.90
10968;DHT22;5536;49.602;10.980;2023-02-25T09:40:29;4.70;99.90
10968;DHT22;5536;49.602;10.980;2023-02-25T09:43:05;4.80;99.90
10968;DHT22;5536;49.602;10.980;2023-02-25T09:45:34;4.70;99.90
10968;DHT22;5536;49.602;10.980;2023-02-25T09:48:08;4.70;99.90
10968;DHT22;5536;49.602;10.980;2023-02-25T09:50:43;4.70;99.90
10968;DHT22;5536;49.602;10.980;2023-02-25T09:53:16;4.70;99.90
10968;DHT22;5536;49.602;10.980;2023-02-25T09:55:47;4.70;99.90
10968;DHT22;5536;49.602;10.980;2023-02-25T09:58:20;4.70;99.90
10968;DHT22;5536;49.602;10.980;2023-02-25T10:00:53;4.70;99.90
10968;DHT22;5536;49.602;10.980;2023-02-25T10:03:24;4.70;99.90
10968;DHT22;5536;49.602;10.980;2023-02-25T10:06:02;4.70;99.90
10968;DHT22;5536;49.602;10.980;2023-02-25T10:08:36;4.70;99.90
10968;DHT22;5536;49.602;10.980;2023-02-25T10:11:10;4.70;99.90
10968;DHT22;5536;49.602;10.980;2023-02-25T10:13:44;4.70;99.90
10968;DHT22;5536;49.602;10.980;2023-02-25T10:16:32;4.80;99.90
10968;DHT22;5536;49.602;10.980;2023-02-25T10:19:12;4.80;99.90
10968;DHT22;5536;49.602;10.980;2023-02-25T10:22:04;4.70;99.90
10968;DHT22;5536;49.602;10.980;2023-02-25T10:24:39;4.80;99.90
10968;DHT22;5536;49.602;10.980;2023-02-25T10:27:12;5.00;99.90
10968;DHT22;5536;49.602;10.980;2023-02-25T10:29:43;5.10;99.90
10968;DHT22;5536;49.602;10.980;2023-02-25T10:32:17;5.30;99.90
10968;DHT22;5536;49.602;10.980;2023-02-25T10:34:45;5.50;99.90
10968;DHT22;5536;49.602;10.980;2023-02-25T10:37:19;5.70;99.90
10968;DHT22;5536;49.602;10.980;2023-02-25T10:39:54;5.90;99.90
10968;DHT22;5536;49.602;10.980;2023-02-25T10:42:22;6.00;99.90
10968;DHT22;5536;49.602;10.980;2023-02-25T10:44:49;6.30;99.90
10968;DHT22;5536;49.602;10.980;2023-02-25T10:47:20;6.20;99.90
10968;DHT22;5536;49.602;10.980;2023-02-25T10:50:11;6.20;99.90
10968;DHT22;5536;49.602;10.980;2023-02-25T10:52:53;6.10;99.90
10968;DHT22;5536;49.602;10.980;2023-02-25T10:55:44;6.00;99.90
10968;DHT22;5536;49.602;10.980;2023-02-25T10:58:26;5.90;99.90
10968;DHT22;5536;49.602;10.980;2023-02-25T11:00:57;6.00;99.90
10968;DHT22;5536;49.602;10.980;2023-02-25T11:03:25;6.30;99.90
10968;DHT22;5536;49.602;10.980;2023-02-25T11:06:11;6.60;99.90
10968;DHT22;5536;49.602;10.980;2023-02-25T11:08:40;6.40;99.90
10968;DHT22;5536;49.602;10.980;2023-02-25T11:11:14;6.30;99.90
10968;DHT22;5536;49.602;10.980;2023-02-25T11:13:42;6.10;99.90
10968;DHT22;5536;49.602;10.980;2023-02-25T11:16:11;5.90;99.90
10968;DHT22;5536;49.602;10.980;2023-02-25T11:18:39;5.90;99.90
10968;DHT22;5536;49.602;10.980;2023-02-25T11:21:09;5.80;99.90
10968;DHT22;5536;49.602;10.980;2023-02-25T11:23:44;5.90;99.90
10968;DHT22;5536;49.602;10.980;2023-02-25T11:26:14;5.70;99.90
10968;DHT22;5536;49.602;10.980;2023-02-25T11:28:44;5.40;99.90
10968;DHT22;5536;49.602;10.980;2023-02-25T11:31:17;5.20;99.90
10968;DHT22;5536;49.602;10.980;2023-02-25T11:33:49;5.00;99.90
10968;DHT22;5536;49.602;10.980;2023-02-25T11:36:21;5.00;99.90
10968;DHT22;5536;49.602;10.980;2023-02-25T11:39:04;5.10;99.90
10968;DHT22;5536;49.602;10.980;2023-02-25T11:41:31;5.30;99.90
10968;DHT22;5536;49.602;10.980;2023-02-25T11:44:15;5.50;99.90
10968;DHT22;5536;49.602;10.980;2023-02-25T11:46:45;5.80;99.90
10968;DHT22;5536;49.602;10.980;2023-02-25T11:49:15;6.00;99.90
10968;DHT22;5536;49.602;10.980;2023-02-25T11:51:49;6.10;99.90
10968;DHT22;5536;49.602;10.980;2023-02-25T11:54:24;5.90;99.90
10968;DHT22;5536;49.602;10.980;2023-02-25T11:56:58;5.80;99.90
10968;DHT22;5536;49.602;10.980;2023-02-25T11:59:35;5.80;99.90
10968;DHT22;5536;49.602;10.980;2023-02-25T12:02:26;5.90;99.90
10968;DHT22;5536;49.602;10.980;2023-02-25T12:05:14;6.10;99.90
10968;DHT22;5536;49.602;10.980;2023-02-25T12:07:57;6.30;99.90
10968;DHT22;5536;49.602;10.980;2023-02-25T12:11:06;6.30;99.90
10968;DHT22;5536;49.602;10.980;2023-02-25T12:14:09;6.70;99.90
10968;DHT22;5536;49.602;10.980;2023-02-25T12:17:08;6.80;99.90
10968;DHT22;5536;49.602;10.980;2023-02-25T12:23:13;6.40;99.90
10968;DHT22;5536;49.602;10.980;2023-02-25T12:25:54;5.80;99.90
10968;DHT22;5536;49.602;10.980;2023-02-25T12:31:55;4.40;99.90
10968;DHT22;5536;49.602;10.980;2023-02-25T12:34:37;4.20;99.90
10968;DHT22;5536;49.602;10.980;2023-02-25T12:37:17;4.10;99.90
10968;DHT22;5536;49.602;10.980;2023-02-25T12:40:06;4.00;99.90
10968;DHT22;5536;49.602;10.980;2023-02-25T12:42:48;4.20;99.90
10968;DHT22;5536;49.602;10.980;2023-02-25T12:45:31;4.70;99.90
10968;DHT22;5536;49.602;10.980;2023-02-25T12:51:16;5.40;99.90
10968;DHT22;5536;49.602;10.980;2023-02-25T12:54:03;5.70;99.90
10968;DHT22;5536;49.602;10.980;2023-02-25T13:03:48;4.80;99.90
10968;DHT22;5536;49.602;10.980;2023-02-25T13:07:05;4.30;99.90
10968;DHT22;5536;49.602;10.980;2023-02-25T13:12:53;3.80;99.90
10968;DHT22;5536;49.602;10.980;2023-02-25T13:15:29;3.90;99.90
10968;DHT22;5536;49.602;10.980;2023-02-25T13:18:18;3.80;99.90
10968;DHT22;5536;49.602;10.980;2023-02-25T13:21:25;3.90;99.90
10968;DHT22;5536;49.602;10.980;2023-02-25T13:24:09;3.80;99.90
10968;DHT22;5536;49.602;10.980;2023-02-25T13:27:01;3.90;99.90
10968;DHT22;5536;49.602;10.980;2023-02-25T13:32:41;3.60;99.90
10968;DHT22;5536;49.602;10.980;2023-02-25T13:35:20;3.60;99.90
10968;DHT22;5536;49.602;10.980;2023-02-25T13:38:03;3.60;99.90
10968;DHT22;5536;49.602;10.980;2023-02-25T13:40:46;3.60;99.90
10968;DHT22;5536;49.602;10.980;2023-02-25T13:46:35;3.70;99.90
10968;DHT22;5536;49.602;10.980;2023-02-25T13:52:27;3.60;99.90
10968;DHT22;5536;49.602;10.980;2023-02-25T13:55:26;3.60;99.90
10968;DHT22;5536;49.602;10.980;2023-02-25T13:58:06;3.50;99.90
10968;DHT22;5536;49.602;10.980;2023-02-25T14:00:52;3.50;99.90
10968;DHT22;5536;49.602;10.980;2023-02-25T14:03:52;3.40;99.90
10968;DHT22;5536;49.602;10.980;2023-02-25T14:06:41;3.50;99.90
10968;DHT22;5536;49.602;10.980;2023-02-25T14:09:20;3.70;99.90
10968;DHT22;5536;49.602;10.980;2023-02-25T14:11:58;3.70;99.90
10968;DHT22;5536;49.602;10.980;2023-02-25T14:14:55;3.80;99.90
10968;DHT22;5536;49.602;10.980;2023-02-25T14:20:21;4.00;99.90
10968;DHT22;5536;49.602;10.980;2023-02-25T14:22:55;4.00;99.90
10968;DHT22;5536;49.602;10.980;2023-02-25T14:25:37;4.10;99.90
10968;DHT22;5536;49.602;10.980;2023-02-25T14:28:17;4.00;99.90
10968;DHT22;5536;49.602;10.980;2023-02-25T14:30:56;4.10;99.90
10968;DHT22;5536;49.602;10.980;2023-02-25T14:33:48;4.10;99.90
10968;DHT22;5536;49.602;10.980;2023-02-25T14:36:41;4.00;99.90
10968;DHT22;5536;49.602;10.980;2023-02-25T14:39:21;4.00;99.90
10968;DHT22;5536;49.602;10.980;2023-02-25T14:42:04;4.00;99.90
10968;DHT22;5536;49.602;10.980;2023-02-25T14:44:39;4.20;99.90
10968;DHT22;5536;49.602;10.980;2023-02-25T14:47:12;4.30;99.90
10968;DHT22;5536;49.602;10.980;2023-02-25T14:49:53;4.50;99.90
10968;DHT22;5536;49.602;10.980;2023-02-25T14:58:54;4.40;99.90
10968;DHT22;5536;49.602;10.980;2023-02-25T15:01:42;4.30;99.90
10968;DHT22;5536;49.602;10.980;2023-02-25T15:04:54;4.20;99.90
10968;DHT22;5536;49.602;10.980;2023-02-25T15:07:41;4.10;99.90
10968;DHT22;5536;49.602;10.980;2023-02-25T15:10:30;4.10;99.90
10968;DHT22;5536;49.602;10.980;2023-02-25T15:13:32;4.30;99.90
10968;DHT22;5536;49.602;10.980;2023-02-25T15:22:20;4.50;99.90
10968;DHT22;5536;49.602;10.980;2023-02-25T15:24:47;4.50;99.90
10968;DHT22;5536;49.602;10.980;2023-02-25T15:27:46;4.40;99.90
10968;DHT22;5536;49.602;10.980;2023-02-25T15:30:16;4.50;99.90
10968;DHT22;5536;49.602;10.980;2023-02-25T15:33:11;4.40;99.90
10968;DHT22;5536;49.602;10.980;2023-02-25T15:38:50;4.30;99.90
10968;DHT22;5536;49.602;10.980;2023-02-25T15:41:38;4.30;99.90
10968;DHT22;5536;49.602;10.980;2023-02-25T15:44:32;4.30;99.90
10968;DHT22;5536;49.602;10.980;2023-02-25T15:47:22;4.30;99.90
10968;DHT22;5536;49.602;10.980;2023-02-25T15:49:50;4.30;99.90
10968;DHT22;5536;49.602;10.980;2023-02-25T15:52:49;4.30;99.90
10968;DHT22;5536;49.602;10.980;2023-02-25T15:55:33;4.20;99.90
10968;DHT22;5536;49.602;10.980;2023-02-25T15:58:01;4.10;99.90
10968;DHT22;5536;49.602;10.980;2023-02-25T16:00:51;4.20;99.90
10968;DHT22;5536;49.602;10.980;2023-02-25T16:03:37;4.20;99.90
10968;DHT22;5536;49.602;10.980;2023-02-25T16:06:09;4.20;99.90
10968;DHT22;5536;49.602;10.980;2023-02-25T16:08:41;4.10;99.90
10968;DHT22;5536;49.602;10.980;2023-02-25T16:11:22;4.10;99.90
10968;DHT22;5536;49.602;10.980;2023-02-25T16:13:51;4.00;99.90
10968;DHT22;5536;49.602;10.980;2023-02-25T16:16:19;4.00;99.90
10968;DHT22;5536;49.602;10.980;2023-02-25T16:18:48;4.00;99.90
10968;DHT22;5536;49.602;10.980;2023-02-25T16:21:21;3.90;99.90
10968;DHT22;5536;49.602;10.980;2023-02-25T16:23:50;3.70;99.90
10968;DHT22;5536;49.602;10.980;2023-02-25T16:26:29;3.70;99.90
10968;DHT22;5536;49.602;10.980;2023-02-25T16:29:06;3.60;99.90
10968;DHT22;5536;49.602;10.980;2023-02-25T16:31:43;3.50;99.90
10968;DHT22;5536;49.602;10.980;2023-02-25T16:34:15;3.40;99.90
10968;DHT22;5536;49.602;10.980;2023-02-25T16:36:47;3.40;99.90
10968;DHT22;5536;49.602;10.980;2023-02-25T16:39:22;3.30;99.90
10968;DHT22;5536;49.602;10.980;2023-02-25T16:41:53;3.30;99.90
10968;DHT22;5536;49.602;10.980;2023-02-25T16:44:25;3.30;99.90
10968;DHT22;5536;49.602;10.980;2023-02-25T16:46:55;3.20;99.90
10968;DHT22;5536;49.602;10.980;2023-02-25T16:49:27;3.10;99.90
10968;DHT22;5536;49.602;10.980;2023-02-25T16:51:56;3.00;99.90
10968;DHT22;5536;49.602;10.980;2023-02-25T16:54:26;3.00;99.90
10968;DHT22;5536;49.602;10.980;2023-02-25T16:57:00;3.00;99.90
10968;DHT22;5536;49.602;10.980;2023-02-25T16:59:32;3.00;99.90
10968;DHT22;5536;49.602;10.980;2023-02-25T17:02:02;2.90;99.90
10968;DHT22;5536;49.602;10.980;2023-02-25T17:04:32;2.90;99.90
10968;DHT22;5536;49.602;10.980;2023-02-25T17:07:17;2.90;99.90
10968;DHT22;5536;49.602;10.980;2023-02-25T17:09:48;2.90;99.90